Time;durP1;ratioP1;P1;durP2;ratioP2;P2;SDS_P1;SDS_P2;PMS_P1;PMS_P2;Temp;Humidity;BMP_temperature;BMP_pressure;BME280_temperature;BME280_humidity;BME280_pressure;Samples;Min_cycle;Max_cycle;Signal;HPM_P1;HPM_P2
2022/11/23 00:00:45;;;;;;;5.93;3.38;;;;;;;1.36;86.28;98064.44;4894705;29;20052;-64
2022/11/23 00:03:16;;;;;;;6.22;3.28;;;;;;;1.31;85.97;98066.88;4896536;29;20036;-63
2022/11/23 00:05:41;;;;;;;5.35;3.72;;;;;;;1.34;86.28;98063.03;4896264;29;20045;-63
2022/11/23 00:08:07;;;;;;;11.23;5.03;;;;;;;1.40;86.37;98062.19;4894694;29;20502;-64
2022/11/23 00:10:32;;;;;;;6.43;3.92;;;;;;;1.41;86.04;98071.63;4894655;29;20430;-65
2022/11/23 00:12:58;;;;;;;7.40;4.00;;;;;;;1.46;86.14;98063.19;4895194;29;20139;-64
2022/11/23 00:15:23;;;;;;;9.00;4.40;;;;;;;1.50;85.52;98062.56;4895308;29;20048;-63
2022/11/23 00:17:49;;;;;;;6.50;3.90;;;;;;;1.51;85.83;98069.38;4879381;29;20044;-64
2022/11/23 00:20:15;;;;;;;7.65;3.78;;;;;;;1.47;85.47;98070.81;4894630;29;20052;-62
2022/11/23 00:22:41;;;;;;;6.85;3.97;;;;;;;1.46;85.91;98076.22;4894703;29;20052;-63
2022/11/23 00:25:07;;;;;;;6.63;4.35;;;;;;;1.52;85.86;98068.34;4897633;29;20053;-65
2022/11/23 00:27:32;;;;;;;9.50;4.72;;;;;;;1.51;85.11;98084.25;4898783;29;20079;-63
2022/11/23 00:29:58;;;;;;;6.20;4.32;;;;;;;1.59;85.79;98074.34;4898847;29;20049;-64
2022/11/23 00:32:24;;;;;;;6.45;4.13;;;;;;;1.62;84.67;98069.69;4898221;29;20053;-63
2022/11/23 00:34:49;;;;;;;11.02;4.80;;;;;;;1.64;84.62;98070.28;4883255;29;20092;-63
2022/11/23 00:37:16;;;;;;;6.03;4.32;;;;;;;1.64;84.50;98078.91;4898623;29;20056;-63
2022/11/23 00:39:42;;;;;;;11.13;4.97;;;;;;;1.69;84.40;98070.47;4851889;29;20049;-63
2022/11/23 00:42:07;;;;;;;10.65;5.43;;;;;;;1.73;84.40;98064.56;4887181;29;20597;-63
2022/11/23 00:44:33;;;;;;;8.38;5.10;;;;;;;1.67;83.88;98065.44;4898012;29;20044;-63
2022/11/23 00:46:58;;;;;;;8.80;5.15;;;;;;;1.68;84.74;98056.59;4882588;29;20084;-64
2022/11/23 00:49:26;;;;;;;9.35;4.82;;;;;;;1.70;84.35;98072.84;4882486;29;20045;-63
2022/11/23 00:51:52;;;;;;;9.45;4.68;;;;;;;1.68;84.74;98063.63;4899164;29;20434;-62
2022/11/23 00:54:18;;;;;;;7.57;4.40;;;;;;;1.71;84.51;98069.22;4898606;29;20055;-63
2022/11/23 00:56:44;;;;;;;7.07;4.28;;;;;;;1.72;84.39;98064.81;4898301;29;20224;-63
2022/11/23 00:59:09;;;;;;;4.68;3.70;;;;;;;1.69;84.31;98060.81;4851724;29;20056;-65
2022/11/23 01:01:38;;;;;;;5.10;3.58;;;;;;;1.65;84.08;98069.25;4851399;29;20048;-64
2022/11/23 01:04:06;;;;;;;6.18;3.92;;;;;;;1.69;84.40;98070.47;4881802;29;20047;-64
2022/11/23 01:06:34;;;;;;;8.35;3.65;;;;;;;1.69;84.22;98067.84;4899392;29;20058;-63
2022/11/23 01:09:03;;;;;;;7.97;3.63;;;;;;;1.66;84.54;98060.44;4882288;29;20095;-63
2022/11/23 01:11:30;;;;;;;5.20;3.60;;;;;;;1.66;84.44;98058.63;4898025;29;20037;-63
2022/11/23 01:13:56;;;;;;;7.30;3.55;;;;;;;1.66;84.16;98063.84;4897827;29;20139;-64
2022/11/23 01:16:25;;;;;;;7.50;3.78;;;;;;;1.57;84.45;98060.69;4882236;29;20495;-63
2022/11/23 01:19:04;;;;;;;5.38;3.63;;;;;;;1.63;84.79;98059.03;4899281;29;20140;-63
2022/11/23 01:21:30;;;;;;;4.47;3.10;;;;;;;1.64;84.71;98065.06;4898741;29;20040;-64
2022/11/23 01:23:56;;;;;;;3.78;2.90;;;;;;;1.65;84.32;98064.03;4898626;29;20510;-65
2022/11/23 01:26:22;;;;;;;3.67;2.92;;;;;;;1.64;84.56;98058.03;4866563;29;20340;-64
2022/11/23 01:28:48;;;;;;;5.13;3.65;;;;;;;1.61;84.38;98055.03;4899056;29;20144;-65
2022/11/23 01:31:16;;;;;;;6.05;3.53;;;;;;;1.65;84.80;98053.59;4897752;29;20080;-63
2022/11/23 01:33:43;;;;;;;7.18;3.00;;;;;;;1.63;84.59;98058.25;4881594;29;20073;-62
2022/11/23 01:36:15;;;;;;;4.20;3.17;;;;;;;1.61;85.29;98058.44;4881347;29;20037;-64
2022/11/23 01:38:43;;;;;;;4.82;3.05;;;;;;;1.57;84.62;98050.25;4899269;29;20048;-64
2022/11/23 01:41:12;;;;;;;4.95;3.20;;;;;;;1.62;85.07;98057.44;4898748;29;20048;-63
2022/11/23 01:43:38;;;;;;;4.75;3.00;;;;;;;1.59;84.92;98056.06;4897500;29;20136;-64
2022/11/23 01:46:04;;;;;;;4.85;3.13;;;;;;;1.67;84.98;98067.25;4896759;29;20414;-63
2022/11/23 01:48:41;;;;;;;5.78;3.40;;;;;;;1.64;84.86;98065.84;4866511;29;20675;-63
2022/11/23 01:51:29;;;;;;;6.53;2.97;;;;;;;1.70;85.35;98062.38;4882018;29;20076;-63
2022/11/23 01:54:00;;;;;;;5.53;3.38;;;;;;;1.70;84.45;98069.44;4881249;29;20570;-64
2022/11/23 01:56:30;;;;;;;5.78;3.20;;;;;;;1.68;84.65;98068.88;4896781;29;20095;-64
2022/11/23 01:58:58;;;;;;;8.15;3.58;;;;;;;1.75;84.74;98062.56;4897049;29;20127;-64
2022/11/23 02:01:26;;;;;;;3.80;2.92;;;;;;;1.79;84.01;98063.75;4881460;29;20048;-63
2022/11/23 02:03:55;;;;;;;7.20;2.88;;;;;;;1.74;83.87;98068.00;4881335;29;20131;-62
2022/11/23 02:06:22;;;;;;;4.22;2.65;;;;;;;1.68;84.30;98067.03;4881107;29;20100;-63
2022/11/23 02:08:48;;;;;;;3.55;2.47;;;;;;;1.68;84.42;98069.66;4896885;29;20072;-63
2022/11/23 02:11:15;;;;;;;5.28;3.20;;;;;;;1.74;84.44;98068.81;4897510;29;20040;-63
2022/11/23 02:13:43;;;;;;;4.13;2.72;;;;;;;1.76;83.97;98069.38;4865759;29;20040;-63
2022/11/23 02:16:09;;;;;;;4.63;2.58;;;;;;;1.70;84.23;98066.81;4897343;29;20166;-63
2022/11/23 02:18:36;;;;;;;4.65;2.90;;;;;;;1.68;84.35;98071.47;4881324;29;20140;-63
2022/11/23 02:21:03;;;;;;;3.17;2.25;;;;;;;1.70;84.82;98072.03;4881584;29;20047;-65
2022/11/23 02:23:55;;;;;;;3.75;2.50;;;;;;;1.73;84.01;98076.84;4896847;29;20048;-64
2022/11/23 02:26:24;;;;;;;4.28;3.05;;;;;;;1.71;84.07;98076.28;4896193;29;20048;-64
2022/11/23 02:29:04;;;;;;;4.43;2.75;;;;;;;1.73;84.44;98079.47;4897747;29;20147;-63
2022/11/23 02:31:30;;;;;;;4.45;2.75;;;;;;;1.71;84.15;98081.50;4896515;29;20087;-62
2022/11/23 02:33:55;;;;;;;4.55;2.60;;;;;;;1.71;84.11;98090.13;4898073;29;20072;-64
2022/11/23 02:36:34;;;;;;;3.45;2.67;;;;;;;1.73;83.85;98085.47;4895477;29;20103;-64
2022/11/23 02:39:15;;;;;;;8.60;2.55;;;;;;;1.77;84.51;98083.25;4896846;29;20520;-64
2022/11/23 02:41:42;;;;;;;6.93;3.03;;;;;;;1.80;84.28;98078.41;4896356;29;20049;-64
2022/11/23 02:44:33;;;;;;;3.70;2.47;;;;;;;1.81;83.29;98076.59;4898075;29;20068;-63
2022/11/23 02:46:59;;;;;;;5.30;2.60;;;;;;;1.72;83.69;98073.44;4872485;29;20049;-63
2022/11/23 02:49:25;;;;;;;3.45;2.50;;;;;;;1.75;84.10;98075.63;4895419;29;20047;-64
2022/11/23 02:51:51;;;;;;;4.28;2.58;;;;;;;1.74;84.08;98068.81;4896268;29;20056;-63
2022/11/23 02:54:16;;;;;;;3.30;2.72;;;;;;;1.62;84.21;98073.13;4896254;29;20485;-64
2022/11/23 02:56:42;;;;;;;6.43;2.70;;;;;;;1.58;84.54;98077.16;4896006;29;20060;-63
2022/11/23 02:59:08;;;;;;;4.82;2.78;;;;;;;1.61;84.73;98073.31;4895775;29;20059;-64
2022/11/23 03:01:34;;;;;;;4.25;2.88;;;;;;;1.56;84.44;98064.31;4896016;29;20106;-63
2022/11/23 03:04:00;;;;;;;5.97;3.28;;;;;;;1.57;84.52;98065.91;4880644;29;20048;-64
2022/11/23 03:06:28;;;;;;;4.60;2.67;;;;;;;1.52;85.11;98065.72;4880524;29;20128;-64
2022/11/23 03:08:54;;;;;;;5.85;3.20;;;;;;;1.55;85.08;98067.91;4864686;29;20051;-63
2022/11/23 03:11:21;;;;;;;6.30;3.28;;;;;;;1.57;85.00;98065.13;4880030;29;20409;-64
2022/11/23 03:13:46;;;;;;;4.63;3.47;;;;;;;1.53;85.10;98062.13;4880419;29;20045;-64
2022/11/23 03:16:13;;;;;;;4.32;2.72;;;;;;;1.44;85.30;98067.78;4896047;29;20036;-64
2022/11/23 03:18:40;;;;;;;5.35;2.80;;;;;;;1.46;85.30;98076.22;4845779;29;20045;-63
2022/11/23 03:21:09;;;;;;;5.30;3.00;;;;;;;1.37;85.15;98073.06;4888280;29;20058;-63
2022/11/23 03:23:37;;;;;;;5.53;2.90;;;;;;;1.36;85.49;98074.88;4864724;29;20089;-63
2022/11/23 03:26:06;;;;;;;6.22;3.40;;;;;;;1.30;85.85;98077.53;4897132;29;20059;-63
2022/11/23 03:28:37;;;;;;;7.28;3.50;;;;;;;1.29;85.78;98081.13;4895633;29;20049;-63
2022/11/23 03:31:04;;;;;;;4.28;2.92;;;;;;;1.35;86.14;98080.31;4895347;29;20526;-63
2022/11/23 03:33:30;;;;;;;4.03;2.47;;;;;;;1.34;86.14;98087.34;4897325;29;20045;-63
2022/11/23 03:35:57;;;;;;;3.30;2.67;;;;;;;1.35;85.38;98080.31;4895549;29;20045;-64
2022/11/23 03:38:27;;;;;;;6.78;3.35;;;;;;;1.40;86.20;98088.31;4895891;29;20072;-63
2022/11/23 03:40:53;;;;;;;6.60;3.38;;;;;;;1.43;85.93;98093.13;4894257;29;20506;-63
2022/11/23 03:43:33;;;;;;;5.47;3.13;;;;;;;1.44;85.55;98088.69;4879773;29;20048;-63
2022/11/23 03:45:59;;;;;;;3.33;2.60;;;;;;;1.42;85.75;98090.72;4879838;29;20059;-65
2022/11/23 03:48:24;;;;;;;4.05;2.63;;;;;;;1.44;86.03;98081.69;4895524;29;20052;-64
2022/11/23 03:50:50;;;;;;;3.92;2.50;;;;;;;1.40;85.50;98079.69;4894881;29;20042;-63
2022/11/23 03:53:16;;;;;;;4.13;2.65;;;;;;;1.39;85.83;98078.09;4879517;29;20067;-63
2022/11/23 03:55:44;;;;;;;4.22;2.70;;;;;;;1.38;86.22;98066.81;4895416;29;20075;-63
2022/11/23 03:58:10;;;;;;;3.17;2.50;;;;;;;1.40;85.39;98077.88;4879838;29;20048;-64
2022/11/23 04:00:36;;;;;;;3.22;2.47;;;;;;;1.36;85.43;98074.88;4896267;29;20120;-63
2022/11/23 04:03:02;;;;;;;2.85;2.13;;;;;;;1.45;85.74;98082.47;4867160;29;20131;-64
2022/11/23 04:06:07;;;;;;;3.60;2.38;;;;;;;1.47;85.69;98083.88;4870478;29;20052;-63
2022/11/23 04:08:32;;;;;;;3.47;2.50;;;;;;;1.48;85.55;98084.66;4879809;29;20552;-64
2022/11/23 04:10:59;;;;;;;3.60;2.47;;;;;;;1.49;85.25;98081.81;4868507;29;20553;-64
2022/11/23 04:13:35;;;;;;;3.63;2.55;;;;;;;1.48;85.66;98088.06;4895213;29;20343;-63
2022/11/23 04:16:01;;;;;;;3.85;2.45;;;;;;;1.49;85.47;98081.81;4894348;29;20040;-63
2022/11/23 04:18:26;;;;;;;4.10;2.40;;;;;;;1.54;85.20;98084.63;4879709;29;20052;-62
2022/11/23 04:20:52;;;;;;;3.63;2.22;;;;;;;1.55;84.84;98090.63;4879071;29;20085;-63
2022/11/23 04:23:18;;;;;;;2.88;2.13;;;;;;;1.59;85.39;98087.41;4896391;29;20079;-62
2022/11/23 04:25:47;;;;;;;2.47;2.15;;;;;;;1.51;84.66;98095.47;4895482;29;20072;-62
2022/11/23 04:28:13;;;;;;;2.65;2.17;;;;;;;1.60;84.77;98101.25;4871317;29;20990;-62
2022/11/23 04:30:40;;;;;;;3.10;2.00;;;;;;;1.63;84.96;98098.22;4825703;29;20041;-63
2022/11/23 04:33:06;;;;;;;4.78;2.50;;;;;;;1.61;84.68;98102.84;4893082;29;20124;-63
2022/11/23 04:35:33;;;;;;;3.47;1.77;;;;;;;1.65;84.66;98096.22;4894116;29;20041;-64
2022/11/23 04:37:59;;;;;;;2.72;2.30;;;;;;;1.77;85.13;98098.94;4878844;29;20485;-63
2022/11/23 04:40:28;;;;;;;3.47;2.28;;;;;;;1.82;84.18;98104.31;4878798;29;20518;-64
2022/11/23 04:42:59;;;;;;;3.85;1.90;;;;;;;1.77;84.61;98098.94;4864774;29;20088;-63
2022/11/23 04:45:25;;;;;;;3.03;1.85;;;;;;;1.78;84.01;98097.91;4877574;29;20072;-64
2022/11/23 04:47:53;;;;;;;2.20;1.90;;;;;;;1.77;84.05;98101.56;4894579;29;20063;-63
2022/11/23 04:50:22;;;;;;;3.47;2.17;;;;;;;1.73;83.88;98097.75;4894478;29;20043;-63
2022/11/23 04:52:52;;;;;;;3.90;2.35;;;;;;;1.67;83.88;98095.97;4879127;29;20103;-63
2022/11/23 04:55:22;;;;;;;4.90;2.10;;;;;;;1.62;84.35;98088.78;4879267;29;20046;-63
2022/11/23 04:57:54;;;;;;;2.90;2.15;;;;;;;1.68;84.39;98092.38;4893731;29;20055;-63
2022/11/23 05:00:22;;;;;;;2.95;1.95;;;;;;;1.61;84.63;98100.22;4894442;29;20045;-63
2022/11/23 05:02:47;;;;;;;3.47;2.40;;;;;;;1.60;84.43;98101.25;4863490;29;20064;-62
2022/11/23 05:05:24;;;;;;;4.70;2.40;;;;;;;1.65;84.72;98101.44;4894349;29;20062;-61
2022/11/23 05:07:50;;;;;;;2.70;2.00;;;;;;;1.68;84.28;98101.00;4893964;29;20446;-62
2022/11/23 05:10:18;;;;;;;3.30;2.08;;;;;;;1.71;84.51;98107.63;4893987;29;20510;-64
2022/11/23 05:12:45;;;;;;;2.72;2.15;;;;;;;1.70;84.69;98103.41;4897837;29;20044;-63
2022/11/23 05:15:15;;;;;;;2.83;2.10;;;;;;;1.73;84.19;98108.19;4888940;29;20040;-64
2022/11/23 05:17:41;;;;;;;4.55;2.00;;;;;;;1.75;83.65;98114.81;4888646;29;20518;-64
2022/11/23 05:20:13;;;;;;;2.28;2.05;;;;;;;1.77;84.13;98101.56;4867322;29;20487;-63
2022/11/23 05:22:45;;;;;;;2.63;1.88;;;;;;;1.81;84.29;98107.94;4897864;29;20057;-61
2022/11/23 05:25:14;;;;;;;2.47;1.90;;;;;;;1.74;83.56;98115.84;4897587;29;20041;-63
2022/11/23 05:27:45;;;;;;;2.95;2.25;;;;;;;1.72;84.12;98110.00;4882367;29;20048;-68
2022/11/23 05:30:12;;;;;;;5.05;2.97;;;;;;;1.78;84.18;98103.94;4882053;29;20052;-64
2022/11/23 05:32:39;;;;;;;4.18;2.45;;;;;;;1.79;84.37;98107.34;4897584;29;20044;-63
2022/11/23 05:35:06;;;;;;;3.10;2.30;;;;;;;1.76;83.26;98116.41;4882177;29;20036;-63
2022/11/23 05:37:35;;;;;;;7.87;4.70;;;;;;;1.80;83.87;98117.59;4882412;29;20099;-65
2022/11/23 05:40:05;;;;;;;3.80;2.70;;;;;;;1.82;84.01;98119.97;4844574;29;20427;-66
2022/11/23 05:42:31;;;;;;;5.38;3.20;;;;;;;1.74;83.65;98121.06;4875594;29;20059;-64
2022/11/23 05:45:05;;;;;;;3.90;2.60;;;;;;;1.79;83.85;98117.78;4875472;29;20061;-65
2022/11/23 05:47:37;;;;;;;3.50;2.63;;;;;;;1.78;83.99;98127.44;4874746;29;20068;-63
2022/11/23 05:50:09;;;;;;;5.28;3.30;;;;;;;1.74;85.04;98120.25;4874968;29;20473;-64
2022/11/23 05:52:39;;;;;;;4.95;2.78;;;;;;;1.76;83.70;98126.84;4859744;29;20053;-65
2022/11/23 05:55:06;;;;;;;3.90;3.05;;;;;;;1.79;84.19;98121.22;4844247;29;20045;-65
2022/11/23 05:57:31;;;;;;;4.38;3.10;;;;;;;1.77;83.79;98125.88;4844465;29;20407;-63
2022/11/23 05:59:57;;;;;;;4.05;2.70;;;;;;;1.84;83.91;98131.03;4861130;29;20088;-68
2022/11/23 06:02:38;;;;;;;4.32;2.53;;;;;;;1.83;84.15;98129.44;4861158;29;20058;-65
2022/11/23 06:05:05;;;;;;;3.55;2.55;;;;;;;1.80;83.96;98135.88;4859587;29;20428;-66
2022/11/23 06:07:40;;;;;;;6.45;2.70;;;;;;;1.80;84.13;98133.28;4873811;29;20133;-62
2022/11/23 06:10:15;;;;;;;3.33;2.67;;;;;;;1.80;83.99;98132.47;4856223;29;20444;-64
2022/11/23 06:12:45;;;;;;;2.58;2.20;;;;;;;1.76;84.22;98119.00;4854662;29;20072;-63
2022/11/23 06:15:13;;;;;;;3.20;2.28;;;;;;;1.68;84.35;98115.88;4859833;29;20041;-63
2022/11/23 06:17:39;;;;;;;2.63;1.92;;;;;;;1.75;84.10;98125.25;4852447;29;20125;-63
2022/11/23 06:20:10;;;;;;;2.00;1.80;;;;;;;1.75;84.37;98132.31;4839082;29;20095;-61
2022/11/23 06:22:41;;;;;;;2.58;2.03;;;;;;;1.74;84.15;98131.50;4853377;29;21207;-63
2022/11/23 06:25:08;;;;;;;4.43;2.00;;;;;;;1.73;84.51;98131.72;4856480;29;20122;-64
2022/11/23 06:27:39;;;;;;;2.55;2.00;;;;;;;1.76;84.81;98137.31;4843284;29;20164;-63
2022/11/23 06:30:16;;;;;;;2.40;1.80;;;;;;;1.69;84.24;98125.31;4856976;29;20532;-62
2022/11/23 06:32:42;;;;;;;5.90;2.50;;;;;;;1.71;84.76;98134.53;4857388;29;20049;-63
2022/11/23 06:35:09;;;;;;;3.30;1.80;;;;;;;1.73;85.11;98136.94;4856929;29;20041;-63
2022/11/23 06:37:41;;;;;;;2.35;1.98;;;;;;;1.78;84.86;98137.09;4857434;29;20519;-61
2022/11/23 06:40:10;;;;;;;3.75;2.15;;;;;;;1.79;84.39;98143.91;4857662;29;20045;-62
2022/11/23 06:42:36;;;;;;;2.25;1.80;;;;;;;1.67;84.76;98137.78;4840313;29;20041;-61
2022/11/23 06:45:02;;;;;;;3.13;2.45;;;;;;;1.71;84.45;98131.94;4839522;29;20062;-62
2022/11/23 06:47:30;;;;;;;2.60;2.13;;;;;;;1.71;85.28;98141.59;4849270;29;20049;-61
2022/11/23 06:49:57;;;;;;;3.95;2.50;;;;;;;1.73;85.50;98129.88;4858747;29;20052;-63
2022/11/23 06:52:27;;;;;;;4.65;2.72;;;;;;;1.69;85.33;98131.34;4858307;29;20045;-64
2022/11/23 06:54:53;;;;;;;4.28;2.08;;;;;;;1.64;85.04;98144.22;4873000;29;20129;-62
2022/11/23 06:57:20;;;;;;;6.30;3.05;;;;;;;1.66;85.96;98144.03;4841807;29;20071;-64
2022/11/23 06:59:47;;;;;;;2.95;2.20;;;;;;;1.69;85.08;98149.63;4854874;29;20094;-63
2022/11/23 07:02:15;;;;;;;4.70;2.78;;;;;;;1.39;85.79;98141.56;4857902;29;20069;-63
2022/11/23 07:04:41;;;;;;;4.90;2.80;;;;;;;1.45;86.28;98147.75;4840736;29;20045;-67
2022/11/23 07:07:13;;;;;;;5.22;2.88;;;;;;;1.49;85.91;98139.28;4840730;29;20571;-65
2022/11/23 07:09:47;;;;;;;5.65;3.45;;;;;;;1.49;85.92;98147.13;4855904;29;20053;-65
2022/11/23 07:12:21;;;;;;;5.40;3.15;;;;;;;1.42;86.67;98140.34;4842433;29;20053;-66
2022/11/23 07:14:47;;;;;;;4.10;2.65;;;;;;;1.42;86.64;98151.56;4859001;29;20053;-66
2022/11/23 07:17:13;;;;;;;5.30;3.03;;;;;;;1.36;86.05;98166.25;4858396;29;20144;-63
2022/11/23 07:19:38;;;;;;;3.67;2.67;;;;;;;1.49;86.23;98156.75;4857645;29;20048;-66
2022/11/23 07:22:06;;;;;;;4.38;2.97;;;;;;;1.58;86.00;98156.31;4841284;29;20065;-66
2022/11/23 07:24:34;;;;;;;4.40;3.10;;;;;;;1.61;85.79;98154.28;4855898;29;20037;-67
2022/11/23 07:27:02;;;;;;;3.72;2.58;;;;;;;1.61;85.62;98164.75;4857845;29;20045;-66
2022/11/23 07:29:28;;;;;;;8.95;3.13;;;;;;;1.53;86.09;98163.16;4855913;29;20050;-64
2022/11/23 07:31:54;;;;;;;4.03;3.10;;;;;;;1.50;85.65;98153.13;4871952;29;20057;-65
2022/11/23 07:34:23;;;;;;;5.88;3.15;;;;;;;1.55;85.46;98171.59;4855804;29;20479;-65
2022/11/23 07:36:49;;;;;;;5.18;2.75;;;;;;;1.59;85.54;98170.19;4855912;29;20407;-67
2022/11/23 07:39:16;;;;;;;4.50;3.05;;;;;;;1.65;85.55;98168.53;4841838;29;20057;-64
2022/11/23 07:41:43;;;;;;;7.85;3.38;;;;;;;1.67;85.15;98161.28;4856286;29;20060;-65
2022/11/23 07:44:20;;;;;;;4.07;3.05;;;;;;;1.65;85.00;98174.56;4872467;29;20515;-67
2022/11/23 07:46:50;;;;;;;5.30;2.90;;;;;;;1.59;85.44;98168.38;4856102;29;20049;-63
2022/11/23 07:49:16;;;;;;;4.90;3.20;;;;;;;1.62;85.34;98168.94;4840349;29;20049;-65
2022/11/23 07:51:42;;;;;;;4.43;2.97;;;;;;;1.67;84.46;98169.91;4840828;29;20495;-63
2022/11/23 07:54:08;;;;;;;6.85;3.80;;;;;;;1.75;84.43;98169.69;4858257;29;20054;-65
2022/11/23 07:56:34;;;;;;;4.43;3.42;;;;;;;1.74;84.53;98175.13;4857725;29;20132;-65
2022/11/23 07:58:59;;;;;;;6.03;3.13;;;;;;;1.71;84.13;98165.91;4870761;29;20045;-64
2022/11/23 08:01:25;;;;;;;3.53;3.05;;;;;;;1.67;84.21;98169.91;4856378;29;20049;-65
2022/11/23 08:03:51;;;;;;;6.20;3.25;;;;;;;1.70;84.17;98160.88;4856597;29;20059;-65
2022/11/23 08:06:17;;;;;;;8.15;3.30;;;;;;;1.78;83.83;98158.00;4837125;29;20185;-71
2022/11/23 08:08:43;;;;;;;4.70;3.30;;;;;;;1.91;83.65;98164.94;4856485;29;20136;-64
2022/11/23 08:11:09;;;;;;;5.32;3.40;;;;;;;1.93;83.12;98161.13;4855456;29;20492;-65
2022/11/23 08:13:36;;;;;;;5.32;3.85;;;;;;;1.92;82.81;98169.19;4870758;29;20038;-63
2022/11/23 08:16:02;;;;;;;5.57;3.45;;;;;;;1.94;82.93;98161.91;4857211;29;20037;-65
2022/11/23 08:18:28;;;;;;;5.72;3.60;;;;;;;2.01;82.69;98158.25;4871987;29;20644;-62
2022/11/23 08:20:59;;;;;;;5.68;3.60;;;;;;;1.91;82.57;98173.63;4856795;29;20060;-64
2022/11/23 08:23:24;;;;;;;6.35;3.97;;;;;;;1.97;82.50;98170.16;4868042;29;20060;-63
2022/11/23 08:25:50;;;;;;;5.15;3.55;;;;;;;1.97;82.47;98164.09;4871505;29;20045;-66
2022/11/23 08:28:17;;;;;;;3.95;2.90;;;;;;;1.96;82.30;98173.75;4855562;29;20049;-63
2022/11/23 08:30:42;;;;;;;5.78;3.63;;;;;;;1.94;82.81;98183.66;4855449;29;20045;-63
2022/11/23 08:33:09;;;;;;;5.97;3.45;;;;;;;1.92;82.24;98162.13;4871757;29;20049;-63
2022/11/23 08:35:36;;;;;;;5.45;3.20;;;;;;;2.01;82.42;98166.09;4869149;29;20162;-63
2022/11/23 08:38:03;;;;;;;5.95;3.28;;;;;;;2.02;81.79;98172.13;4855835;29;20069;-63
2022/11/23 08:40:28;;;;;;;4.90;2.90;;;;;;;1.99;81.92;98167.31;4840229;29;20041;-63
2022/11/23 08:42:54;;;;;;;5.78;2.90;;;;;;;1.99;82.25;98175.16;4839806;29;20046;-63
2022/11/23 08:45:20;;;;;;;4.32;2.83;;;;;;;2.02;82.08;98174.72;4855511;29;20053;-62
2022/11/23 08:47:46;;;;;;;5.85;3.47;;;;;;;2.04;81.56;98177.94;4860958;29;20053;-63
2022/11/23 08:50:12;;;;;;;4.07;2.78;;;;;;;2.02;82.08;98178.16;4863577;29;20500;-64
2022/11/23 08:52:38;;;;;;;4.78;2.47;;;;;;;2.00;81.88;98171.53;4875250;29;20049;-62
2022/11/23 08:55:04;;;;;;;5.28;3.20;;;;;;;1.94;82.68;98169.75;4859595;29;20052;-65
2022/11/23 08:57:30;;;;;;;3.53;2.70;;;;;;;1.92;82.15;98172.59;4874553;29;20044;-63
2022/11/23 08:59:55;;;;;;;6.28;3.10;;;;;;;1.96;82.07;98181.59;4860992;29;20037;-64
2022/11/23 09:02:21;;;;;;;5.75;2.85;;;;;;;1.97;81.84;98177.16;4859917;29;20424;-61
2022/11/23 09:04:47;;;;;;;5.57;2.92;;;;;;;2.09;82.05;98175.50;4858498;29;20045;-62
2022/11/23 09:07:12;;;;;;;3.38;2.80;;;;;;;2.14;82.00;98185.31;4860166;29;20097;-63
2022/11/23 09:09:38;;;;;;;3.65;2.70;;;;;;;2.15;81.50;98185.09;4858391;29;20058;-70
2022/11/23 09:12:04;;;;;;;3.17;2.25;;;;;;;2.16;80.88;98173.63;4842634;29;20583;-65
2022/11/23 09:14:30;;;;;;;4.63;3.10;;;;;;;2.07;81.50;98181.94;4859454;29;20050;-70
2022/11/23 09:16:56;;;;;;;4.32;2.50;;;;;;;2.04;80.59;98181.34;4854793;29;20105;-68
2022/11/23 09:19:21;;;;;;;5.60;2.97;;;;;;;2.02;81.42;98178.16;4841611;29;20050;-69
2022/11/23 09:21:48;;;;;;;5.28;3.42;;;;;;;2.10;81.75;98176.31;4852286;29;20077;-66
2022/11/23 09:24:13;;;;;;;6.97;3.15;;;;;;;2.08;81.31;98186.94;4858086;29;20045;-69
2022/11/23 09:26:39;;;;;;;4.57;3.03;;;;;;;2.08;81.23;98179.09;4873645;29;20042;-64
2022/11/23 09:29:07;;;;;;;3.78;2.80;;;;;;;2.07;81.51;98176.72;4859837;29;20132;-66
2022/11/23 09:31:35;;;;;;;4.18;2.60;;;;;;;2.05;81.26;98169.09;4872035;29;20041;-65
2022/11/23 09:34:01;;;;;;;4.32;2.58;;;;;;;2.09;81.63;98177.28;4859286;29;20042;-65
2022/11/23 09:36:27;;;;;;;5.07;3.10;;;;;;;2.01;82.02;98178.38;4846087;29;20044;-64
2022/11/23 09:38:54;;;;;;;4.70;3.78;;;;;;;2.10;82.40;98171.88;4897003;29;20056;-62
2022/11/23 09:41:56;;;;;;;5.00;3.33;;;;;;;2.11;82.47;98186.53;4896706;29;20064;-66
2022/11/23 09:44:22;;;;;;;2.55;2.08;;;;;;;2.14;80.76;98190.53;4895371;29;20049;-64
2022/11/23 09:47:03;;;;;;;3.72;2.83;;;;;;;2.12;81.17;98187.31;4895764;29;20056;-67
2022/11/23 09:49:39;;;;;;;3.67;2.67;;;;;;;2.05;82.00;98182.94;4878938;29;20044;-68
2022/11/23 09:52:15;;;;;;;4.78;2.97;;;;;;;2.01;82.25;98178.38;4865824;29;20164;-67
2022/11/23 09:54:42;;;;;;;4.85;2.45;;;;;;;2.02;81.61;98183.38;4880755;29;20041;-67
2022/11/23 09:57:11;;;;;;;3.08;2.55;;;;;;;2.04;81.70;98180.56;4895726;29;20127;-67
2022/11/23 10:00:05;;;;;;;3.78;2.80;;;;;;;1.96;82.73;98176.38;4864956;29;20041;-65
2022/11/23 10:02:35;;;;;;;3.88;2.75;;;;;;;2.04;82.09;98180.56;4896956;29;20052;-66
2022/11/23 10:05:03;;;;;;;4.43;2.60;;;;;;;2.04;82.05;98178.75;4894288;29;20044;-68
2022/11/23 10:08:03;;;;;;;2.90;2.60;;;;;;;2.02;82.40;98185.97;4893935;29;20057;-65
2022/11/23 10:10:42;;;;;;;3.75;2.60;;;;;;;2.04;82.32;98180.56;4894763;29;20522;-66
2022/11/23 10:13:20;;;;;;;3.85;3.03;;;;;;;1.99;82.10;98186.41;4846681;29;20060;-65
2022/11/23 10:15:59;;;;;;;3.20;2.65;;;;;;;1.98;82.77;98176.97;4864182;29;20049;-66
2022/11/23 10:18:37;;;;;;;3.58;3.15;;;;;;;2.02;82.25;98188.59;4897353;29;20045;-66
2022/11/23 10:21:09;;;;;;;3.85;2.58;;;;;;;2.10;81.48;98184.16;4896595;29;20494;-67
2022/11/23 10:23:55;;;;;;;4.07;3.10;;;;;;;2.08;81.31;98200.03;4894114;29;20083;-64
2022/11/23 10:26:29;;;;;;;4.68;3.05;;;;;;;2.07;81.57;98190.59;4893019;29;20479;-65
2022/11/23 10:28:56;;;;;;;4.85;3.45;;;;;;;2.01;81.61;98194.06;4896338;29;20047;-64
2022/11/23 10:31:23;;;;;;;5.53;3.40;;;;;;;1.97;81.96;98191.06;4896171;29;20108;-63
2022/11/23 10:33:59;;;;;;;6.63;2.85;;;;;;;2.07;81.19;98193.22;4895015;29;20070;-65
2022/11/23 10:36:25;;;;;;;6.13;3.08;;;;;;;2.07;81.04;98193.22;4894776;29;20519;-64
2022/11/23 10:38:56;;;;;;;4.18;2.97;;;;;;;2.08;81.01;98192.19;4893443;29;20431;-65
2022/11/23 10:41:21;;;;;;;3.70;2.63;;;;;;;2.00;80.40;98188.03;4877752;29;20040;-65
2022/11/23 10:44:19;;;;;;;3.55;2.20;;;;;;;2.14;80.17;98195.75;4894826;29;20048;-64
2022/11/23 10:46:45;;;;;;;3.28;2.47;;;;;;;2.19;79.82;98194.13;4893866;29;20498;-63
2022/11/23 10:49:20;;;;;;;5.15;2.58;;;;;;;2.12;80.30;98200.41;4862255;29;20044;-65
2022/11/23 10:52:02;;;;;;;3.70;2.63;;;;;;;2.15;80.48;98200.00;4865018;29;20048;-64
2022/11/23 10:54:42;;;;;;;4.28;2.53;;;;;;;2.13;80.42;98197.59;4877792;29;20096;-65
2022/11/23 10:57:42;;;;;;;2.75;2.50;;;;;;;2.11;79.75;98193.56;4878368;29;20065;-65
2022/11/23 11:00:12;;;;;;;2.78;2.22;;;;;;;1.96;80.79;98193.88;4895847;29;20044;-64
2022/11/23 11:02:45;;;;;;;4.45;2.63;;;;;;;2.00;80.90;98200.28;4895826;29;20043;-66
2022/11/23 11:05:29;;;;;;;6.45;2.50;;;;;;;1.96;81.54;98194.66;4876163;29;20041;-61
2022/11/23 11:07:57;;;;;;;2.58;1.90;;;;;;;1.89;81.28;98191.31;4895777;29;20086;-67
2022/11/23 11:10:43;;;;;;;3.40;2.40;;;;;;;1.93;81.49;98192.47;4878692;29;20040;-64
2022/11/23 11:13:39;;;;;;;3.65;2.10;;;;;;;2.01;81.47;98201.91;4860909;29;20053;-65
2022/11/23 11:16:21;;;;;;;2.55;1.98;;;;;;;1.99;81.51;98198.69;4871106;29;20045;-61
2022/11/23 11:18:47;;;;;;;7.85;2.20;;;;;;;2.00;82.47;98205.50;4893480;29;20052;-65
2022/11/23 11:21:32;;;;;;;3.90;2.20;;;;;;;2.02;81.67;98203.50;4918484;23;20644;-63
2022/11/23 11:24:37;;;;;;;2.00;1.85;;;;;;;1.91;82.01;98199.75;4933882;29;20070;-68
2022/11/23 11:27:06;;;;;;;2.97;1.88;;;;;;;1.95;82.49;98207.97;4935206;29;20043;-68
2022/11/23 11:29:42;;;;;;;2.35;1.80;;;;;;;1.95;82.26;98208.75;4918516;29;20057;-64
2022/11/23 11:32:17;;;;;;;2.75;2.10;;;;;;;1.95;82.24;98218.41;4936445;29;20058;-64
2022/11/23 11:34:45;;;;;;;2.55;2.25;;;;;;;1.89;82.52;98211.41;4935627;29;20090;-69
2022/11/23 11:37:26;;;;;;;2.80;2.17;;;;;;;1.81;82.76;98220.28;4951186;29;20103;-66
2022/11/23 11:40:19;;;;;;;2.40;1.90;;;;;;;1.81;82.95;98225.53;4953033;29;20059;-66
2022/11/23 11:42:58;;;;;;;1.83;1.67;;;;;;;1.78;83.08;98221.50;4935147;29;20078;-68
2022/11/23 11:45:27;;;;;;;2.80;2.17;;;;;;;1.78;82.69;98223.31;4934854;29;20043;-67
2022/11/23 11:48:02;;;;;;;3.20;2.20;;;;;;;1.73;83.20;98237.00;4917354;29;20123;-64
2022/11/23 11:50:35;;;;;;;2.20;2.00;;;;;;;1.75;82.97;98239.44;4918374;29;20039;-63
2022/11/23 11:53:11;;;;;;;2.90;2.20;;;;;;;1.75;82.94;98236.81;4918771;29;20050;-69